sensor_id;sensor_type;location;lat;lon;timestamp;P1;durP1;ratioP1;P2;durP2;ratioP2
41436;SDS011;27178;49.460;10.850;2022-09-01T00:00:39;3.72;;;3.30;;
41436;SDS011;27178;49.460;10.850;2022-09-01T00:03:14;3.33;;;3.13;;
41436;SDS011;27178;49.460;10.850;2022-09-01T00:05:44;3.10;;;2.90;;
41436;SDS011;27178;49.460;10.850;2022-09-01T00:08:16;5.90;;;3.17;;
41436;SDS011;27178;49.460;10.850;2022-09-01T00:10:46;3.38;;;3.08;;
41436;SDS011;27178;49.460;10.850;2022-09-01T00:13:15;4.07;;;2.83;;
41436;SDS011;27178;49.460;10.850;2022-09-01T00:15:44;3.63;;;3.40;;
41436;SDS011;27178;49.460;10.850;2022-09-01T00:18:12;3.33;;;3.13;;
41436;SDS011;27178;49.460;10.850;2022-09-01T00:20:41;3.78;;;3.47;;
41436;SDS011;27178;49.460;10.850;2022-09-01T00:23:09;3.58;;;3.28;;
41436;SDS011;27178;49.460;10.850;2022-09-01T00:25:38;3.42;;;3.22;;
41436;SDS011;27178;49.460;10.850;2022-09-01T00:28:07;2.85;;;2.65;;
41436;SDS011;27178;49.460;10.850;2022-09-01T00:30:36;3.60;;;3.30;;
41436;SDS011;27178;49.460;10.850;2022-09-01T00:33:04;3.55;;;3.25;;
41436;SDS011;27178;49.460;10.850;2022-09-01T00:35:33;3.10;;;2.90;;
41436;SDS011;27178;49.460;10.850;2022-09-01T00:38:02;3.63;;;3.33;;
41436;SDS011;27178;49.460;10.850;2022-09-01T00:40:31;3.78;;;3.38;;
41436;SDS011;27178;49.460;10.850;2022-09-01T00:43:00;3.22;;;3.03;;
41436;SDS011;27178;49.460;10.850;2022-09-01T00:45:37;3.30;;;3.00;;
41436;SDS011;27178;49.460;10.850;2022-09-01T00:48:07;3.25;;;3.05;;
41436;SDS011;27178;49.460;10.850;2022-09-01T00:50:36;3.72;;;3.42;;
41436;SDS011;27178;49.460;10.850;2022-09-01T00:53:05;3.30;;;2.97;;
41436;SDS011;27178;49.460;10.850;2022-09-01T00:55:35;3.33;;;2.80;;
41436;SDS011;27178;49.460;10.850;2022-09-01T00:58:05;3.30;;;3.00;;
41436;SDS011;27178;49.460;10.850;2022-09-01T01:00:47;4.25;;;2.90;;
41436;SDS011;27178;49.460;10.850;2022-09-01T01:03:18;3.30;;;3.10;;
41436;SDS011;27178;49.460;10.850;2022-09-01T01:05:50;3.45;;;3.15;;
41436;SDS011;27178;49.460;10.850;2022-09-01T01:08:23;3.30;;;3.00;;
41436;SDS011;27178;49.460;10.850;2022-09-01T01:10:59;3.03;;;2.78;;
41436;SDS011;27178;49.460;10.850;2022-09-01T01:13:28;3.20;;;2.92;;
41436;SDS011;27178;49.460;10.850;2022-09-01T01:15:58;3.05;;;2.85;;
41436;SDS011;27178;49.460;10.850;2022-09-01T01:18:27;2.92;;;2.72;;
41436;SDS011;27178;49.460;10.850;2022-09-01T01:20:58;3.20;;;3.00;;
41436;SDS011;27178;49.460;10.850;2022-09-01T01:23:50;2.70;;;2.50;;
41436;SDS011;27178;49.460;10.850;2022-09-01T01:26:26;3.05;;;2.80;;
41436;SDS011;27178;49.460;10.850;2022-09-01T01:28:54;2.92;;;2.72;;
41436;SDS011;27178;49.460;10.850;2022-09-01T01:31:23;3.33;;;2.97;;
41436;SDS011;27178;49.460;10.850;2022-09-01T01:33:52;3.30;;;2.80;;
41436;SDS011;27178;49.460;10.850;2022-09-01T01:36:23;5.93;;;2.90;;
41436;SDS011;27178;49.460;10.850;2022-09-01T01:38:58;3.08;;;2.65;;
41436;SDS011;27178;49.460;10.850;2022-09-01T01:41:31;2.78;;;2.58;;
41436;SDS011;27178;49.460;10.850;2022-09-01T01:44:02;3.67;;;3.38;;
41436;SDS011;27178;49.460;10.850;2022-09-01T01:46:31;3.22;;;2.92;;
41436;SDS011;27178;49.460;10.850;2022-09-01T01:49:01;3.05;;;2.85;;
41436;SDS011;27178;49.460;10.850;2022-09-01T01:51:30;4.05;;;3.47;;
41436;SDS011;27178;49.460;10.850;2022-09-01T01:53:59;3.65;;;3.35;;
41436;SDS011;27178;49.460;10.850;2022-09-01T01:56:32;3.25;;;3.05;;
41436;SDS011;27178;49.460;10.850;2022-09-01T01:59:03;3.90;;;3.60;;
41436;SDS011;27178;49.460;10.850;2022-09-01T02:01:34;3.63;;;3.33;;
41436;SDS011;27178;49.460;10.850;2022-09-01T02:04:03;3.75;;;3.45;;
41436;SDS011;27178;49.460;10.850;2022-09-01T02:06:33;3.17;;;2.97;;
41436;SDS011;27178;49.460;10.850;2022-09-01T02:09:02;3.22;;;3.03;;
41436;SDS011;27178;49.460;10.850;2022-09-01T02:11:32;3.10;;;2.90;;
41436;SDS011;27178;49.460;10.850;2022-09-01T02:14:04;3.33;;;3.00;;
41436;SDS011;27178;49.460;10.850;2022-09-01T02:16:33;4.13;;;3.58;;
41436;SDS011;27178;49.460;10.850;2022-09-01T02:19:03;3.40;;;3.10;;
41436;SDS011;27178;49.460;10.850;2022-09-01T02:21:34;3.60;;;3.30;;
41436;SDS011;27178;49.460;10.850;2022-09-01T02:24:04;3.80;;;3.50;;
41436;SDS011;27178;49.460;10.850;2022-09-01T02:26:36;3.78;;;2.97;;
41436;SDS011;27178;49.460;10.850;2022-09-01T02:29:09;3.33;;;3.13;;
41436;SDS011;27178;49.460;10.850;2022-09-01T02:31:44;3.60;;;3.30;;
41436;SDS011;27178;49.460;10.850;2022-09-01T02:34:14;3.75;;;3.45;;
41436;SDS011;27178;49.460;10.850;2022-09-01T02:36:44;4.20;;;3.25;;
41436;SDS011;27178;49.460;10.850;2022-09-01T02:39:14;3.80;;;3.50;;
41436;SDS011;27178;49.460;10.850;2022-09-01T02:41:46;3.83;;;3.50;;
41436;SDS011;27178;49.460;10.850;2022-09-01T02:48:02;3.63;;;3.33;;
41436;SDS011;27178;49.460;10.850;2022-09-01T02:50:35;4.15;;;3.42;;
41436;SDS011;27178;49.460;10.850;2022-09-01T02:53:04;3.63;;;3.33;;
41436;SDS011;27178;49.460;10.850;2022-09-01T02:55:35;4.90;;;3.78;;
41436;SDS011;27178;49.460;10.850;2022-09-01T02:58:06;3.67;;;3.33;;
41436;SDS011;27178;49.460;10.850;2022-09-01T03:00:39;3.53;;;3.22;;
41436;SDS011;27178;49.460;10.850;2022-09-01T03:03:09;3.90;;;3.60;;
41436;SDS011;27178;49.460;10.850;2022-09-01T03:05:38;5.03;;;3.90;;
41436;SDS011;27178;49.460;10.850;2022-09-01T03:08:09;5.60;;;4.05;;
41436;SDS011;27178;49.460;10.850;2022-09-01T03:10:43;3.83;;;3.53;;
41436;SDS011;27178;49.460;10.850;2022-09-01T03:13:15;3.97;;;3.67;;
41436;SDS011;27178;49.460;10.850;2022-09-01T03:15:44;4.00;;;3.70;;
41436;SDS011;27178;49.460;10.850;2022-09-01T03:18:13;3.78;;;3.47;;
41436;SDS011;27178;49.460;10.850;2022-09-01T03:20:44;4.20;;;3.80;;
41436;SDS011;27178;49.460;10.850;2022-09-01T03:23:16;4.20;;;3.90;;
41436;SDS011;27178;49.460;10.850;2022-09-01T03:25:46;3.70;;;3.35;;
41436;SDS011;27178;49.460;10.850;2022-09-01T03:28:16;4.28;;;3.92;;
41436;SDS011;27178;49.460;10.850;2022-09-01T03:30:45;5.22;;;3.90;;
41436;SDS011;27178;49.460;10.850;2022-09-01T03:33:16;3.67;;;3.38;;
41436;SDS011;27178;49.460;10.850;2022-09-01T03:35:46;3.58;;;3.28;;
41436;SDS011;27178;49.460;10.850;2022-09-01T03:38:15;4.10;;;3.80;;
41436;SDS011;27178;49.460;10.850;2022-09-01T03:40:47;4.97;;;4.07;;
41436;SDS011;27178;49.460;10.850;2022-09-01T03:43:19;4.22;;;3.67;;
41436;SDS011;27178;49.460;10.850;2022-09-01T03:45:50;4.25;;;3.85;;
41436;SDS011;27178;49.460;10.850;2022-09-01T03:48:20;4.38;;;4.05;;
41436;SDS011;27178;49.460;10.850;2022-09-01T03:50:53;4.07;;;3.78;;
41436;SDS011;27178;49.460;10.850;2022-09-01T03:53:24;4.05;;;3.75;;
41436;SDS011;27178;49.460;10.850;2022-09-01T03:55:53;3.70;;;3.40;;
41436;SDS011;27178;49.460;10.850;2022-09-01T03:58:24;3.10;;;2.90;;
41436;SDS011;27178;49.460;10.850;2022-09-01T04:00:54;3.92;;;3.63;;
41436;SDS011;27178;49.460;10.850;2022-09-01T04:03:27;4.07;;;3.67;;
41436;SDS011;27178;49.460;10.850;2022-09-01T04:06:02;3.88;;;3.55;;
41436;SDS011;27178;49.460;10.850;2022-09-01T04:08:31;4.18;;;3.88;;
41436;SDS011;27178;49.460;10.850;2022-09-01T04:11:01;4.13;;;3.83;;
41436;SDS011;27178;49.460;10.850;2022-09-01T04:13:34;4.38;;;3.97;;
41436;SDS011;27178;49.460;10.850;2022-09-01T04:16:04;4.63;;;3.80;;
41436;SDS011;27178;49.460;10.850;2022-09-01T04:18:36;4.18;;;3.88;;
41436;SDS011;27178;49.460;10.850;2022-09-01T04:21:05;4.05;;;3.65;;
41436;SDS011;27178;49.460;10.850;2022-09-01T04:23:34;3.97;;;3.67;;
41436;SDS011;27178;49.460;10.850;2022-09-01T04:26:04;4.05;;;3.65;;
41436;SDS011;27178;49.460;10.850;2022-09-01T04:28:37;4.03;;;3.50;;
41436;SDS011;27178;49.460;10.850;2022-09-01T04:31:09;4.80;;;4.20;;
41436;SDS011;27178;49.460;10.850;2022-09-01T04:33:40;4.57;;;3.67;;
41436;SDS011;27178;49.460;10.850;2022-09-01T04:36:13;4.03;;;3.72;;
41436;SDS011;27178;49.460;10.850;2022-09-01T04:38:45;4.07;;;3.78;;
41436;SDS011;27178;49.460;10.850;2022-09-01T04:41:14;4.30;;;4.00;;
41436;SDS011;27178;49.460;10.850;2022-09-01T04:43:48;4.13;;;3.83;;
41436;SDS011;27178;49.460;10.850;2022-09-01T04:46:18;4.32;;;3.92;;
41436;SDS011;27178;49.460;10.850;2022-09-01T04:48:50;4.35;;;3.90;;
41436;SDS011;27178;49.460;10.850;2022-09-01T04:51:20;4.88;;;4.47;;
41436;SDS011;27178;49.460;10.850;2022-09-01T04:53:53;3.67;;;3.38;;
41436;SDS011;27178;49.460;10.850;2022-09-01T04:56:23;3.65;;;3.35;;
41436;SDS011;27178;49.460;10.850;2022-09-01T04:59:02;3.50;;;3.20;;
41436;SDS011;27178;49.460;10.850;2022-09-01T05:01:33;3.70;;;3.40;;
41436;SDS011;27178;49.460;10.850;2022-09-01T05:04:09;4.00;;;3.70;;
41436;SDS011;27178;49.460;10.850;2022-09-01T05:06:39;4.30;;;3.92;;
41436;SDS011;27178;49.460;10.850;2022-09-01T05:09:09;4.07;;;3.78;;
41436;SDS011;27178;49.460;10.850;2022-09-01T05:11:38;3.95;;;3.60;;
41436;SDS011;27178;49.460;10.850;2022-09-01T05:14:12;3.97;;;3.70;;
41436;SDS011;27178;49.460;10.850;2022-09-01T05:16:44;3.40;;;3.20;;
41436;SDS011;27178;49.460;10.850;2022-09-01T05:19:14;3.88;;;3.58;;
41436;SDS011;27178;49.460;10.850;2022-09-01T05:21:46;3.33;;;3.03;;
41436;SDS011;27178;49.460;10.850;2022-09-01T05:24:16;3.60;;;3.30;;
41436;SDS011;27178;49.460;10.850;2022-09-01T05:26:47;4.03;;;3.63;;
41436;SDS011;27178;49.460;10.850;2022-09-01T05:29:17;4.03;;;3.72;;
41436;SDS011;27178;49.460;10.850;2022-09-01T05:31:47;4.25;;;3.95;;
41436;SDS011;27178;49.460;10.850;2022-09-01T05:34:18;5.47;;;4.40;;
41436;SDS011;27178;49.460;10.850;2022-09-01T05:36:52;3.47;;;3.25;;
41436;SDS011;27178;49.460;10.850;2022-09-01T05:39:23;5.97;;;4.15;;
41436;SDS011;27178;49.460;10.850;2022-09-01T05:41:52;3.95;;;3.63;;
41436;SDS011;27178;49.460;10.850;2022-09-01T05:44:22;4.43;;;4.03;;
41436;SDS011;27178;49.460;10.850;2022-09-01T05:46:51;5.55;;;4.10;;
41436;SDS011;27178;49.460;10.850;2022-09-01T05:49:21;3.90;;;3.60;;
41436;SDS011;27178;49.460;10.850;2022-09-01T05:51:50;4.22;;;3.92;;
41436;SDS011;27178;49.460;10.850;2022-09-01T05:54:24;5.15;;;4.28;;
41436;SDS011;27178;49.460;10.850;2022-09-01T05:56:54;4.45;;;4.05;;
41436;SDS011;27178;49.460;10.850;2022-09-01T05:59:46;3.97;;;3.60;;
41436;SDS011;27178;49.460;10.850;2022-09-01T06:02:19;4.85;;;3.80;;
41436;SDS011;27178;49.460;10.850;2022-09-01T06:04:48;3.80;;;3.50;;
41436;SDS011;27178;49.460;10.850;2022-09-01T06:07:20;5.03;;;3.90;;
41436;SDS011;27178;49.460;10.850;2022-09-01T06:09:50;5.63;;;3.80;;
41436;SDS011;27178;49.460;10.850;2022-09-01T06:12:19;4.20;;;3.80;;
41436;SDS011;27178;49.460;10.850;2022-09-01T06:14:51;3.80;;;3.50;;
41436;SDS011;27178;49.460;10.850;2022-09-01T06:17:22;4.85;;;3.85;;
41436;SDS011;27178;49.460;10.850;2022-09-01T06:19:52;5.95;;;3.70;;
41436;SDS011;27178;49.460;10.850;2022-09-01T06:22:22;4.53;;;4.00;;
41436;SDS011;27178;49.460;10.850;2022-09-01T06:24:52;3.67;;;3.38;;
41436;SDS011;27178;49.460;10.850;2022-09-01T06:27:28;5.00;;;4.00;;
41436;SDS011;27178;49.460;10.850;2022-09-01T06:29:58;3.75;;;3.42;;
41436;SDS011;27178;49.460;10.850;2022-09-01T06:32:27;3.78;;;3.50;;
41436;SDS011;27178;49.460;10.850;2022-09-01T06:34:56;3.88;;;3.40;;
41436;SDS011;27178;49.460;10.850;2022-09-01T06:37:25;3.70;;;3.50;;
41436;SDS011;27178;49.460;10.850;2022-09-01T06:39:54;3.78;;;3.47;;
41436;SDS011;27178;49.460;10.850;2022-09-01T06:42:23;4.00;;;3.70;;
41436;SDS011;27178;49.460;10.850;2022-09-01T06:44:51;4.07;;;3.78;;
41436;SDS011;27178;49.460;10.850;2022-09-01T06:47:22;3.92;;;3.58;;
41436;SDS011;27178;49.460;10.850;2022-09-01T06:49:53;3.85;;;3.20;;
41436;SDS011;27178;49.460;10.850;2022-09-01T06:52:24;4.07;;;3.25;;
41436;SDS011;27178;49.460;10.850;2022-09-01T06:54:53;4.50;;;3.20;;
41436;SDS011;27178;49.460;10.850;2022-09-01T06:57:23;4.03;;;3.70;;
41436;SDS011;27178;49.460;10.850;2022-09-01T07:00:13;3.13;;;2.92;;
41436;SDS011;27178;49.460;10.850;2022-09-01T07:02:46;6.13;;;3.08;;
41436;SDS011;27178;49.460;10.850;2022-09-01T07:05:20;3.30;;;3.10;;
41436;SDS011;27178;49.460;10.850;2022-09-01T07:08:11;3.00;;;2.80;;
41436;SDS011;27178;49.460;10.850;2022-09-01T07:10:46;3.13;;;2.83;;
41436;SDS011;27178;49.460;10.850;2022-09-01T07:13:35;4.50;;;2.85;;
41436;SDS011;27178;49.460;10.850;2022-09-01T07:16:25;3.22;;;2.83;;
41436;SDS011;27178;49.460;10.850;2022-09-01T07:19:02;3.38;;;3.17;;
41436;SDS011;27178;49.460;10.850;2022-09-01T07:21:32;2.80;;;2.60;;
41436;SDS011;27178;49.460;10.850;2022-09-01T07:24:07;3.65;;;2.58;;
41436;SDS011;27178;49.460;10.850;2022-09-01T07:26:37;2.78;;;2.58;;
41436;SDS011;27178;49.460;10.850;2022-09-01T07:29:14;2.63;;;2.42;;
41436;SDS011;27178;49.460;10.850;2022-09-01T07:31:49;4.10;;;2.65;;
41436;SDS011;27178;49.460;10.850;2022-09-01T07:34:42;3.08;;;2.50;;
41436;SDS011;27178;49.460;10.850;2022-09-01T07:37:15;2.63;;;2.35;;
41436;SDS011;27178;49.460;10.850;2022-09-01T07:40:09;5.60;;;2.85;;
41436;SDS011;27178;49.460;10.850;2022-09-01T07:42:59;2.50;;;2.30;;
41436;SDS011;27178;49.460;10.850;2022-09-01T07:45:30;4.85;;;2.28;;
41436;SDS011;27178;49.460;10.850;2022-09-01T07:47:58;2.47;;;2.28;;
41436;SDS011;27178;49.460;10.850;2022-09-01T07:50:30;2.38;;;2.17;;
41436;SDS011;27178;49.460;10.850;2022-09-01T07:53:06;3.10;;;2.80;;
41436;SDS011;27178;49.460;10.850;2022-09-01T07:55:38;2.50;;;2.30;;
41436;SDS011;27178;49.460;10.850;2022-09-01T07:58:09;3.30;;;2.50;;
41436;SDS011;27178;49.460;10.850;2022-09-01T08:00:38;2.72;;;2.35;;
41436;SDS011;27178;49.460;10.850;2022-09-01T08:03:08;2.47;;;2.28;;
41436;SDS011;27178;49.460;10.850;2022-09-01T08:05:39;2.90;;;2.65;;
41436;SDS011;27178;49.460;10.850;2022-09-01T08:08:08;4.22;;;2.53;;
41436;SDS011;27178;49.460;10.850;2022-09-01T08:10:45;2.80;;;2.30;;
41436;SDS011;27178;49.460;10.850;2022-09-01T08:13:15;2.50;;;2.30;;
41436;SDS011;27178;49.460;10.850;2022-09-01T08:15:47;2.80;;;2.40;;
41436;SDS011;27178;49.460;10.850;2022-09-01T08:18:33;2.53;;;1.88;;
41436;SDS011;27178;49.460;10.850;2022-09-01T08:21:19;2.33;;;2.13;;
41436;SDS011;27178;49.460;10.850;2022-09-01T08:23:48;2.15;;;2.00;;
41436;SDS011;27178;49.460;10.850;2022-09-01T08:26:18;2.42;;;2.22;;
41436;SDS011;27178;49.460;10.850;2022-09-01T08:28:48;2.20;;;2.10;;
41436;SDS011;27178;49.460;10.850;2022-09-01T08:31:21;3.05;;;2.55;;
41436;SDS011;27178;49.460;10.850;2022-09-01T08:33:56;2.75;;;2.55;;
41436;SDS011;27178;49.460;10.850;2022-09-01T08:36:27;2.50;;;2.20;;
41436;SDS011;27178;49.460;10.850;2022-09-01T08:38:55;2.53;;;2.20;;
41436;SDS011;27178;49.460;10.850;2022-09-01T08:41:30;2.70;;;2.50;;
41436;SDS011;27178;49.460;10.850;2022-09-01T08:44:15;2.80;;;2.50;;
41436;SDS011;27178;49.460;10.850;2022-09-01T08:46:57;2.17;;;2.00;;
41436;SDS011;27178;49.460;10.850;2022-09-01T08:49:29;2.50;;;2.30;;
41436;SDS011;27178;49.460;10.850;2022-09-01T08:52:13;2.60;;;2.40;;
41436;SDS011;27178;49.460;10.850;2022-09-01T08:54:46;2.53;;;2.33;;
41436;SDS011;27178;49.460;10.850;2022-09-01T08:57:17;2.45;;;2.25;;
41436;SDS011;27178;49.460;10.850;2022-09-01T08:59:48;2.38;;;2.17;;
41436;SDS011;27178;49.460;10.850;2022-09-01T09:02:32;2.55;;;2.35;;
41436;SDS011;27178;49.460;10.850;2022-09-01T09:05:26;5.78;;;2.28;;
41436;SDS011;27178;49.460;10.850;2022-09-01T09:11:02;2.28;;;2.08;;
41436;SDS011;27178;49.460;10.850;2022-09-01T09:13:35;2.83;;;2.40;;
41436;SDS011;27178;49.460;10.850;2022-09-01T09:16:11;2.17;;;2.03;;
41436;SDS011;27178;49.460;10.850;2022-09-01T09:18:46;2.15;;;1.80;;
41436;SDS011;27178;49.460;10.850;2022-09-01T09:21:22;1.90;;;1.80;;
41436;SDS011;27178;49.460;10.850;2022-09-01T09:23:58;1.88;;;1.77;;
41436;SDS011;27178;49.460;10.850;2022-09-01T09:26:33;1.90;;;1.80;;
41436;SDS011;27178;49.460;10.850;2022-09-01T09:29:10;2.10;;;1.90;;
41436;SDS011;27178;49.460;10.850;2022-09-01T09:31:38;2.85;;;2.03;;
41436;SDS011;27178;49.460;10.850;2022-09-01T09:34:15;2.35;;;2.15;;
41436;SDS011;27178;49.460;10.850;2022-09-01T09:36:45;2.20;;;2.00;;
41436;SDS011;27178;49.460;10.850;2022-09-01T09:39:21;2.92;;;1.98;;
41436;SDS011;27178;49.460;10.850;2022-09-01T09:42:00;4.38;;;2.15;;
41436;SDS011;27178;49.460;10.850;2022-09-01T09:44:37;2.50;;;1.90;;
41436;SDS011;27178;49.460;10.850;2022-09-01T09:47:10;1.95;;;1.80;;
41436;SDS011;27178;49.460;10.850;2022-09-01T09:50:14;1.98;;;1.67;;
41436;SDS011;27178;49.460;10.850;2022-09-01T09:52:49;2.25;;;1.85;;
41436;SDS011;27178;49.460;10.850;2022-09-01T09:55:22;2.53;;;1.67;;
41436;SDS011;27178;49.460;10.850;2022-09-01T09:57:54;2.88;;;1.88;;
41436;SDS011;27178;49.460;10.850;2022-09-01T10:00:26;2.17;;;1.98;;
41436;SDS011;27178;49.460;10.850;2022-09-01T10:02:57;2.08;;;1.90;;
41436;SDS011;27178;49.460;10.850;2022-09-01T10:05:40;3.80;;;2.10;;
41436;SDS011;27178;49.460;10.850;2022-09-01T10:08:10;2.15;;;1.98;;
41436;SDS011;27178;49.460;10.850;2022-09-01T10:10:47;1.88;;;1.77;;
41436;SDS011;27178;49.460;10.850;2022-09-01T10:13:24;1.95;;;1.80;;
41436;SDS011;27178;49.460;10.850;2022-09-01T10:15:58;2.20;;;2.00;;
41436;SDS011;27178;49.460;10.850;2022-09-01T10:18:31;2.03;;;1.90;;
41436;SDS011;27178;49.460;10.850;2022-09-01T10:21:06;3.55;;;1.70;;
41436;SDS011;27178;49.460;10.850;2022-09-01T10:23:38;2.40;;;2.20;;
41436;SDS011;27178;49.460;10.850;2022-09-01T10:26:12;1.90;;;1.80;;
41436;SDS011;27178;49.460;10.850;2022-09-01T10:28:45;1.88;;;1.77;;
41436;SDS011;27178;49.460;10.850;2022-09-01T10:31:18;2.50;;;2.28;;
41436;SDS011;27178;49.460;10.850;2022-09-01T10:33:48;2.72;;;2.10;;
41436;SDS011;27178;49.460;10.850;2022-09-01T10:36:17;2.33;;;2.13;;
41436;SDS011;27178;49.460;10.850;2022-09-01T10:38:49;2.10;;;1.90;;
41436;SDS011;27178;49.460;10.850;2022-09-01T10:44:26;2.30;;;2.10;;
41436;SDS011;27178;49.460;10.850;2022-09-01T10:47:02;2.30;;;2.20;;
41436;SDS011;27178;49.460;10.850;2022-09-01T10:52:54;2.60;;;2.40;;
41436;SDS011;27178;49.460;10.850;2022-09-01T10:55:25;3.28;;;1.88;;
41436;SDS011;27178;49.460;10.850;2022-09-01T10:58:01;2.45;;;2.25;;
41436;SDS011;27178;49.460;10.850;2022-09-01T11:01:01;2.15;;;1.70;;
41436;SDS011;27178;49.460;10.850;2022-09-01T11:06:33;11.38;;;2.30;;
41436;SDS011;27178;49.460;10.850;2022-09-01T11:10:05;2.00;;;1.75;;
41436;SDS011;27178;49.460;10.850;2022-09-01T11:13:05;2.35;;;2.15;;
41436;SDS011;27178;49.460;10.850;2022-09-01T11:16:25;2.40;;;1.75;;
41436;SDS011;27178;49.460;10.850;2022-09-01T11:19:27;2.10;;;1.60;;
41436;SDS011;27178;49.460;10.850;2022-09-01T11:22:12;1.88;;;1.63;;
41436;SDS011;27178;49.460;10.850;2022-09-01T11:24:55;2.50;;;2.00;;
41436;SDS011;27178;49.460;10.850;2022-09-01T11:31:21;3.03;;;1.90;;
41436;SDS011;27178;49.460;10.850;2022-09-01T11:33:58;2.10;;;1.90;;
41436;SDS011;27178;49.460;10.850;2022-09-01T11:36:33;2.25;;;2.05;;
41436;SDS011;27178;49.460;10.850;2022-09-01T11:39:05;2.20;;;2.00;;
41436;SDS011;27178;49.460;10.850;2022-09-01T11:41:44;1.98;;;1.88;;
41436;SDS011;27178;49.460;10.850;2022-09-01T11:44:26;1.75;;;1.65;;
41436;SDS011;27178;49.460;10.850;2022-09-01T11:47:01;2.00;;;1.90;;
41436;SDS011;27178;49.460;10.850;2022-09-01T11:49:44;1.95;;;1.77;;
41436;SDS011;27178;49.460;10.850;2022-09-01T11:52:15;1.90;;;1.77;;
41436;SDS011;27178;49.460;10.850;2022-09-01T11:54:47;1.85;;;1.75;;
41436;SDS011;27178;49.460;10.850;2022-09-01T11:57:21;3.15;;;1.50;;
41436;SDS011;27178;49.460;10.850;2022-09-01T11:59:54;1.58;;;1.48;;
41436;SDS011;27178;49.460;10.850;2022-09-01T12:02:26;1.73;;;1.63;;
41436;SDS011;27178;49.460;10.850;2022-09-01T12:04:57;1.75;;;1.65;;
41436;SDS011;27178;49.460;10.850;2022-09-01T12:07:30;3.20;;;2.05;;
41436;SDS011;27178;49.460;10.850;2022-09-01T12:10:12;1.80;;;1.70;;
41436;SDS011;27178;49.460;10.850;2022-09-01T12:12:43;2.65;;;1.95;;
41436;SDS011;27178;49.460;10.850;2022-09-01T12:15:16;1.75;;;1.65;;
41436;SDS011;27178;49.460;10.850;2022-09-01T12:18:03;1.90;;;1.67;;
41436;SDS011;27178;49.460;10.850;2022-09-01T12:20:36;2.08;;;1.60;;
41436;SDS011;27178;49.460;10.850;2022-09-01T12:23:14;1.70;;;1.60;;
41436;SDS011;27178;49.460;10.850;2022-09-01T12:25:46;3.05;;;1.60;;
41436;SDS011;27178;49.460;10.850;2022-09-01T12:28:14;2.00;;;1.80;;
41436;SDS011;27178;49.460;10.850;2022-09-01T12:30:43;1.77;;;1.67;;
41436;SDS011;27178;49.460;10.850;2022-09-01T12:33:13;1.70;;;1.60;;
41436;SDS011;27178;49.460;10.850;2022-09-01T12:35:49;1.85;;;1.75;;
41436;SDS011;27178;49.460;10.850;2022-09-01T12:38:27;1.77;;;1.60;;
41436;SDS011;27178;49.460;10.850;2022-09-01T12:40:57;1.85;;;1.75;;
41436;SDS011;27178;49.460;10.850;2022-09-01T12:43:27;1.60;;;1.42;;
41436;SDS011;27178;49.460;10.850;2022-09-01T12:45:57;2.45;;;1.55;;
41436;SDS011;27178;49.460;10.850;2022-09-01T12:48:31;1.77;;;1.67;;
41436;SDS011;27178;49.460;10.850;2022-09-01T12:51:02;2.33;;;1.88;;
41436;SDS011;27178;49.460;10.850;2022-09-01T12:53:34;1.85;;;1.75;;
41436;SDS011;27178;49.460;10.850;2022-09-01T12:56:05;2.47;;;2.00;;
41436;SDS011;27178;49.460;10.850;2022-09-01T12:58:45;2.90;;;2.00;;
41436;SDS011;27178;49.460;10.850;2022-09-01T13:01:27;2.00;;;1.80;;
41436;SDS011;27178;49.460;10.850;2022-09-01T13:04:06;2.30;;;2.10;;
41436;SDS011;27178;49.460;10.850;2022-09-01T13:06:37;2.08;;;1.88;;
41436;SDS011;27178;49.460;10.850;2022-09-01T13:09:06;1.80;;;1.70;;
41436;SDS011;27178;49.460;10.850;2022-09-01T13:11:35;1.90;;;1.80;;
41436;SDS011;27178;49.460;10.850;2022-09-01T13:14:23;1.73;;;1.63;;
41436;SDS011;27178;49.460;10.850;2022-09-01T13:16:52;2.00;;;1.77;;
41436;SDS011;27178;49.460;10.850;2022-09-01T13:19:22;5.53;;;1.83;;
41436;SDS011;27178;49.460;10.850;2022-09-01T13:21:55;2.65;;;2.03;;
41436;SDS011;27178;49.460;10.850;2022-09-01T13:24:24;3.35;;;2.22;;
41436;SDS011;27178;49.460;10.850;2022-09-01T13:26:56;2.17;;;1.98;;
41436;SDS011;27178;49.460;10.850;2022-09-01T13:29:45;2.20;;;2.00;;
41436;SDS011;27178;49.460;10.850;2022-09-01T13:32:13;2.03;;;1.85;;
41436;SDS011;27178;49.460;10.850;2022-09-01T13:34:46;1.83;;;1.73;;
41436;SDS011;27178;49.460;10.850;2022-09-01T13:37:17;1.80;;;1.70;;
41436;SDS011;27178;49.460;10.850;2022-09-01T13:39:46;1.88;;;1.65;;
41436;SDS011;27178;49.460;10.850;2022-09-01T13:42:15;1.65;;;1.55;;
41436;SDS011;27178;49.460;10.850;2022-09-01T13:44:44;1.52;;;1.42;;
41436;SDS011;27178;49.460;10.850;2022-09-01T13:47:19;1.73;;;1.63;;
41436;SDS011;27178;49.460;10.850;2022-09-01T13:49:58;1.85;;;1.63;;
41436;SDS011;27178;49.460;10.850;2022-09-01T13:52:34;2.38;;;1.80;;
41436;SDS011;27178;49.460;10.850;2022-09-01T13:55:02;2.35;;;1.83;;
41436;SDS011;27178;49.460;10.850;2022-09-01T13:57:31;3.60;;;1.80;;
41436;SDS011;27178;49.460;10.850;2022-09-01T14:00:02;1.67;;;1.58;;
41436;SDS011;27178;49.460;10.850;2022-09-01T14:02:33;1.88;;;1.77;;
41436;SDS011;27178;49.460;10.850;2022-09-01T14:05:04;1.80;;;1.70;;
41436;SDS011;27178;49.460;10.850;2022-09-01T14:07:33;1.90;;;1.80;;
41436;SDS011;27178;49.460;10.850;2022-09-01T14:10:03;2.72;;;1.90;;
41436;SDS011;27178;49.460;10.850;2022-09-01T14:12:33;1.92;;;1.80;;
41436;SDS011;27178;49.460;10.850;2022-09-01T14:15:03;2.00;;;1.80;;
41436;SDS011;27178;49.460;10.850;2022-09-01T14:17:44;2.70;;;1.85;;
41436;SDS011;27178;49.460;10.850;2022-09-01T14:20:16;4.20;;;1.60;;
41436;SDS011;27178;49.460;10.850;2022-09-01T14:22:46;1.88;;;1.73;;
41436;SDS011;27178;49.460;10.850;2022-09-01T14:25:16;2.05;;;1.95;;
41436;SDS011;27178;49.460;10.850;2022-09-01T14:27:45;1.67;;;1.58;;
41436;SDS011;27178;49.460;10.850;2022-09-01T14:30:15;1.40;;;1.30;;
41436;SDS011;27178;49.460;10.850;2022-09-01T14:32:46;1.88;;;1.45;;
41436;SDS011;27178;49.460;10.850;2022-09-01T14:35:16;1.77;;;1.67;;
41436;SDS011;27178;49.460;10.850;2022-09-01T14:37:46;3.33;;;1.50;;
41436;SDS011;27178;49.460;10.850;2022-09-01T14:40:14;2.42;;;1.80;;
41436;SDS011;27178;49.460;10.850;2022-09-01T14:42:44;1.98;;;1.88;;
41436;SDS011;27178;49.460;10.850;2022-09-01T14:45:15;3.95;;;3.65;;
41436;SDS011;27178;49.460;10.850;2022-09-01T14:47:45;13.77;;;12.30;;
41436;SDS011;27178;49.460;10.850;2022-09-01T14:50:15;16.10;;;14.50;;
41436;SDS011;27178;49.460;10.850;2022-09-01T14:52:49;9.82;;;8.93;;
41436;SDS011;27178;49.460;10.850;2022-09-01T14:55:19;6.82;;;6.22;;
41436;SDS011;27178;49.460;10.850;2022-09-01T14:57:48;3.75;;;3.42;;
41436;SDS011;27178;49.460;10.850;2022-09-01T15:00:18;3.58;;;3.28;;
41436;SDS011;27178;49.460;10.850;2022-09-01T15:02:46;5.68;;;2.20;;
41436;SDS011;27178;49.460;10.850;2022-09-01T15:05:16;2.10;;;1.80;;
41436;SDS011;27178;49.460;10.850;2022-09-01T15:07:45;5.35;;;1.92;;
41436;SDS011;27178;49.460;10.850;2022-09-01T15:10:15;2.15;;;1.95;;
41436;SDS011;27178;49.460;10.850;2022-09-01T15:12:50;2.03;;;1.50;;
41436;SDS011;27178;49.460;10.850;2022-09-01T15:15:19;5.30;;;4.82;;
41436;SDS011;27178;49.460;10.850;2022-09-01T15:17:47;5.75;;;3.97;;
41436;SDS011;27178;49.460;10.850;2022-09-01T15:20:17;5.43;;;2.38;;
41436;SDS011;27178;49.460;10.850;2022-09-01T15:25:38;2.90;;;2.70;;
41436;SDS011;27178;49.460;10.850;2022-09-01T15:28:07;2.05;;;1.95;;
41436;SDS011;27178;49.460;10.850;2022-09-01T15:30:35;3.38;;;2.17;;